Time;durP1;ratioP1;P1;durP2;ratioP2;P2;SDS_P1;SDS_P2;PMS_P1;PMS_P2;Temp;Humidity;BMP_temperature;BMP_pressure;BME280_temperature;BME280_humidity;BME280_pressure;Samples;Min_cycle;Max_cycle;Signal;HPM_P1;HPM_P2
2023/03/19 04:01:44;;;;;;;0.60;0.60;;;16.50;50.80;;;;;;5357698;22;47248;-59
2023/03/19 04:04:10;;;;;;;0.60;0.57;;;16.50;50.80;;;;;;4958435;28;45323;-57
2023/03/19 04:06:36;;;;;;;1.15;0.75;;;16.50;50.90;;;;;;4926404;28;45873;-59
2023/03/19 04:09:01;;;;;;;0.65;0.52;;;16.50;50.90;;;;;;4966992;28;45517;-58
2023/03/19 04:11:27;;;;;;;0.88;0.68;;;16.50;50.90;;;;;;4970153;28;45600;-59
2023/03/19 04:13:56;;;;;;;0.90;0.80;;;16.50;50.80;;;;;;4933972;28;45698;-59
2023/03/19 04:16:22;;;;;;;0.80;0.75;;;16.50;50.80;;;;;;4962798;28;44717;-59
2023/03/19 04:18:48;;;;;;;0.50;0.43;;;16.50;51.00;;;;;;4954079;28;45316;-60
2023/03/19 04:21:14;;;;;;;1.17;0.77;;;16.50;50.90;;;;;;4961377;28;46203;-57
2023/03/19 04:23:40;;;;;;;0.63;0.50;;;16.50;50.90;;;;;;4955013;28;45449;-57
2023/03/19 04:26:06;;;;;;;0.60;0.60;;;16.50;50.90;;;;;;4962422;28;45034;-57
2023/03/19 04:28:32;;;;;;;0.50;0.50;;;16.50;50.90;;;;;;4954207;28;44678;-58
2023/03/19 04:31:01;;;;;;;0.80;0.60;;;16.50;50.80;;;;;;4942628;28;45333;-58
2023/03/19 04:33:28;;;;;;;1.38;0.70;;;16.50;50.90;;;;;;4953143;28;45388;-58
2023/03/19 04:35:54;;;;;;;0.77;0.70;;;16.50;50.80;;;;;;4952064;23;45824;-58
2023/03/19 04:38:20;;;;;;;0.80;0.60;;;16.50;50.80;;;;;;4940469;28;45335;-59
2023/03/19 04:40:47;;;;;;;0.85;0.70;;;16.50;50.80;;;;;;4978268;28;45310;-61
2023/03/19 04:43:13;;;;;;;0.80;0.50;;;16.50;50.80;;;;;;4970007;28;46911;-58
2023/03/19 04:45:38;;;;;;;1.13;0.63;;;16.50;50.80;;;;;;4964132;28;44792;-61
2023/03/19 04:48:04;;;;;;;0.88;0.60;;;16.50;50.90;;;;;;4978571;28;44769;-58
2023/03/19 04:50:30;;;;;;;1.08;0.80;;;16.50;50.90;;;;;;4974410;28;45224;-59
2023/03/19 04:52:55;;;;;;;1.17;0.60;;;16.50;50.90;;;;;;4983176;28;46288;-59
2023/03/19 04:55:21;;;;;;;0.60;0.60;;;16.50;50.90;;;;;;4975932;28;44625;-59
2023/03/19 04:57:46;;;;;;;0.70;0.57;;;16.50;50.80;;;;;;4957007;28;45079;-57
2023/03/19 05:00:16;;;;;;;0.95;0.75;;;16.50;50.90;;;;;;4979583;28;45462;-57
2023/03/19 05:02:42;;;;;;;0.70;0.60;;;16.50;50.90;;;;;;4964332;28;45324;-58
2023/03/19 05:05:12;;;;;;;0.50;0.50;;;16.50;50.80;;;;;;4979916;28;45910;-58
2023/03/19 05:07:38;;;;;;;0.60;0.60;;;16.50;50.80;;;;;;4965080;28;44904;-59
2023/03/19 05:10:04;;;;;;;0.50;0.50;;;16.50;50.80;;;;;;4964831;28;45168;-60
2023/03/19 05:12:30;;;;;;;0.85;0.77;;;16.50;50.90;;;;;;4967177;28;45477;-61
2023/03/19 05:14:56;;;;;;;0.73;0.70;;;16.50;50.90;;;;;;4981139;28;45278;-56
2023/03/19 05:17:22;;;;;;;1.25;0.60;;;16.50;50.90;;;;;;4931244;28;45427;-56
2023/03/19 05:19:47;;;;;;;0.73;0.70;;;16.50;50.80;;;;;;4958506;28;45151;-58
2023/03/19 05:22:13;;;;;;;0.85;0.85;;;16.50;50.90;;;;;;4974226;28;46330;-56
2023/03/19 05:24:38;;;;;;;0.80;0.50;;;16.50;50.90;;;;;;4969384;28;45628;-58
2023/03/19 05:27:04;;;;;;;0.60;0.60;;;16.50;50.90;;;;;;4950937;28;45276;-57
2023/03/19 05:29:30;;;;;;;1.55;0.80;;;16.50;50.90;;;;;;4966651;28;45246;-57
2023/03/19 05:31:55;;;;;;;0.85;0.75;;;16.40;50.80;;;;;;4969037;28;46350;-58
2023/03/19 05:34:21;;;;;;;0.85;0.70;;;16.50;50.90;;;;;;4973146;28;45135;-57
2023/03/19 05:36:46;;;;;;;0.88;0.68;;;16.40;50.80;;;;;;4938442;28;45294;-59
2023/03/19 05:39:12;;;;;;;0.95;0.70;;;16.50;50.90;;;;;;4962910;28;45696;-56
2023/03/19 05:41:37;;;;;;;0.77;0.70;;;16.50;50.90;;;;;;4976803;28;46928;-56
2023/03/19 05:44:03;;;;;;;0.77;0.77;;;16.40;50.80;;;;;;4980434;28;45558;-59
2023/03/19 05:46:29;;;;;;;0.60;0.50;;;16.40;50.80;;;;;;4976210;28;45269;-57
2023/03/19 05:48:54;;;;;;;0.80;0.70;;;16.40;50.80;;;;;;4976526;28;45605;-57
2023/03/19 05:51:20;;;;;;;0.65;0.50;;;16.50;50.80;;;;;;4977238;28;45226;-57
2023/03/19 05:53:46;;;;;;;0.85;0.65;;;16.50;50.80;;;;;;4958376;28;45307;-58
2023/03/19 05:56:11;;;;;;;0.80;0.70;;;16.50;50.80;;;;;;4963332;28;45089;-59
2023/03/19 05:58:37;;;;;;;0.70;0.60;;;16.50;50.80;;;;;;4960105;28;45366;-58
2023/03/19 06:01:02;;;;;;;1.13;0.60;;;16.50;50.80;;;;;;4956136;28;47206;-58
2023/03/19 06:03:28;;;;;;;0.60;0.60;;;16.50;50.80;;;;;;4961759;28;45259;-55
2023/03/19 06:05:53;;;;;;;0.80;0.70;;;16.50;50.90;;;;;;4940963;28;45469;-57
2023/03/19 06:08:20;;;;;;;0.80;0.70;;;16.50;50.90;;;;;;4965213;28;45622;-57
2023/03/19 06:10:46;;;;;;;0.63;0.60;;;16.40;50.80;;;;;;4976210;28;46966;-58
2023/03/19 06:13:11;;;;;;;1.13;0.82;;;16.50;50.80;;;;;;4947570;28;45502;-56
2023/03/19 06:15:37;;;;;;;0.75;0.68;;;16.40;50.80;;;;;;4958511;28;45300;-59
2023/03/19 06:18:03;;;;;;;1.75;0.80;;;16.40;50.80;;;;;;4965258;28;44822;-59
2023/03/19 06:20:28;;;;;;;0.80;0.60;;;16.40;50.80;;;;;;4976646;28;45654;-57
2023/03/19 06:22:54;;;;;;;1.00;0.70;;;16.40;50.80;;;;;;4975723;28;45460;-58
2023/03/19 06:25:20;;;;;;;0.63;0.60;;;16.40;50.80;;;;;;4977466;28;45984;-60
2023/03/19 06:27:45;;;;;;;0.88;0.70;;;16.50;50.90;;;;;;4950787;28;45181;-57
2023/03/19 06:30:12;;;;;;;0.77;0.77;;;16.50;50.90;;;;;;4975167;28;45129;-60
2023/03/19 06:32:41;;;;;;;0.80;0.60;;;16.40;50.80;;;;;;4958277;28;45239;-57
2023/03/19 06:35:07;;;;;;;0.73;0.65;;;16.50;50.90;;;;;;4947060;28;45204;-62
2023/03/19 06:37:33;;;;;;;0.60;0.60;;;16.40;50.90;;;;;;4938046;28;45447;-58
2023/03/19 06:39:58;;;;;;;0.77;0.70;;;16.40;50.90;;;;;;4962686;28;46333;-57
2023/03/19 06:42:24;;;;;;;0.75;0.60;;;16.40;50.90;;;;;;4956349;28;44738;-58
2023/03/19 06:44:49;;;;;;;0.70;0.60;;;16.40;50.90;;;;;;4981637;28;45296;-58
2023/03/19 06:47:15;;;;;;;0.93;0.65;;;16.40;50.90;;;;;;4972143;28;45244;-58
2023/03/19 06:49:41;;;;;;;0.57;0.57;;;16.40;50.90;;;;;;4976516;28;45322;-59
2023/03/19 06:52:06;;;;;;;0.60;0.52;;;16.40;50.90;;;;;;4970450;28;45771;-58
2023/03/19 06:54:32;;;;;;;0.60;0.60;;;16.40;50.90;;;;;;4977629;28;45246;-58
2023/03/19 06:56:58;;;;;;;0.82;0.70;;;16.40;50.80;;;;;;4977192;28;45473;-59
2023/03/19 06:59:23;;;;;;;0.77;0.75;;;16.40;50.80;;;;;;4979670;28;46451;-57
2023/03/19 07:01:49;;;;;;;0.95;0.80;;;16.40;50.80;;;;;;4939982;28;45316;-58
2023/03/19 07:04:15;;;;;;;0.60;0.60;;;16.40;50.90;;;;;;4970139;28;45550;-58
2023/03/19 07:06:40;;;;;;;0.70;0.70;;;16.40;50.80;;;;;;4957701;28;45516;-58
2023/03/19 07:09:06;;;;;;;0.95;0.77;;;16.40;50.80;;;;;;4981794;28;45339;-60
2023/03/19 07:11:32;;;;;;;0.70;0.70;;;16.40;50.80;;;;;;4980728;28;45281;-60
2023/03/19 07:13:58;;;;;;;0.93;0.75;;;16.40;50.90;;;;;;4963583;28;45323;-60
2023/03/19 07:16:23;;;;;;;0.90;0.70;;;16.40;50.80;;;;;;4974656;28;45919;-60
2023/03/19 07:18:49;;;;;;;0.88;0.80;;;16.40;50.80;;;;;;4966802;28;45651;-58
2023/03/19 07:21:14;;;;;;;1.05;0.90;;;16.40;50.80;;;;;;4964925;28;45050;-54
2023/03/19 07:23:40;;;;;;;1.05;0.60;;;16.40;50.80;;;;;;4981277;28;45314;-59
2023/03/19 07:26:06;;;;;;;0.60;0.60;;;16.40;50.90;;;;;;4960963;28;45394;-54
2023/03/19 07:28:31;;;;;;;0.85;0.70;;;16.40;50.90;;;;;;4985381;28;46336;-57
2023/03/19 07:30:57;;;;;;;0.77;0.77;;;16.40;50.90;;;;;;4943692;28;45392;-59
2023/03/19 07:33:22;;;;;;;1.05;0.70;;;16.40;50.90;;;;;;4972477;28;45297;-57
2023/03/19 07:35:48;;;;;;;1.00;0.80;;;16.40;50.90;;;;;;4961893;28;45334;-58
2023/03/19 07:38:14;;;;;;;1.00;0.90;;;16.40;50.90;;;;;;4956688;28;46180;-59
2023/03/19 07:40:39;;;;;;;0.70;0.70;;;16.40;50.90;;;;;;4981848;28;44645;-59
2023/03/19 07:43:05;;;;;;;0.93;0.65;;;16.40;50.90;;;;;;4986765;28;45245;-58
2023/03/19 07:45:31;;;;;;;1.33;0.60;;;16.40;50.90;;;;;;4983619;28;45198;-58
2023/03/19 07:47:56;;;;;;;1.40;0.93;;;16.40;50.90;;;;;;4966510;28;45341;-58
2023/03/19 07:50:22;;;;;;;1.05;0.80;;;16.40;50.90;;;;;;4966326;28;45326;-58
2023/03/19 07:52:48;;;;;;;1.17;0.80;;;16.40;50.90;;;;;;4986020;28;45570;-60
2023/03/19 07:55:14;;;;;;;0.50;0.50;;;16.40;50.90;;;;;;4947164;28;45095;-58
2023/03/19 07:57:39;;;;;;;0.70;0.70;;;16.40;50.90;;;;;;4969673;28;45402;-59
2023/03/19 08:00:09;;;;;;;0.68;0.63;;;16.40;51.00;;;;;;4981878;28;44993;-62
2023/03/19 08:02:35;;;;;;;0.85;0.80;;;16.30;51.00;;;;;;4951178;28;45177;-58
2023/03/19 08:05:03;;;;;;;0.80;0.52;;;16.40;51.10;;;;;;4965268;28;44786;-58
2023/03/19 08:07:32;;;;;;;0.85;0.82;;;16.30;51.00;;;;;;4958408;28;45332;-60
2023/03/19 08:09:58;;;;;;;1.05;0.80;;;16.40;51.10;;;;;;4966102;28;45019;-58
2023/03/19 08:12:24;;;;;;;0.80;0.80;;;16.40;51.00;;;;;;4978747;28;45537;-60
2023/03/19 08:14:49;;;;;;;0.82;0.70;;;16.40;51.00;;;;;;4973611;28;45284;-59
2023/03/19 08:17:15;;;;;;;0.73;0.70;;;16.40;51.00;;;;;;4978350;28;45560;-61
2023/03/19 08:19:41;;;;;;;0.85;0.70;;;16.40;51.00;;;;;;4983181;28;44900;-61
2023/03/19 08:22:07;;;;;;;1.00;0.70;;;16.40;51.00;;;;;;4973255;28;44664;-60
2023/03/19 08:24:32;;;;;;;1.05;0.73;;;16.40;51.00;;;;;;4952353;28;45133;-62
2023/03/19 08:26:58;;;;;;;0.70;0.70;;;16.40;51.00;;;;;;4978432;28;45307;-59
2023/03/19 08:29:26;;;;;;;0.75;0.65;;;16.30;51.00;;;;;;4967505;28;45295;-59
2023/03/19 08:31:52;;;;;;;1.33;0.70;;;16.40;51.00;;;;;;4975131;28;45171;-63
2023/03/19 08:34:17;;;;;;;1.40;0.75;;;16.40;51.00;;;;;;4962387;28;45391;-59
2023/03/19 08:36:43;;;;;;;0.80;0.80;;;16.30;51.10;;;;;;4980776;28;46392;-58
2023/03/19 08:39:09;;;;;;;0.80;0.70;;;16.30;51.10;;;;;;4983841;28;45287;-60
2023/03/19 08:41:34;;;;;;;0.98;0.60;;;16.40;51.10;;;;;;4958614;28;45568;-57
2023/03/19 08:44:00;;;;;;;0.80;0.70;;;16.30;51.10;;;;;;4983156;28;45177;-57
2023/03/19 08:46:26;;;;;;;0.52;0.52;;;16.30;51.10;;;;;;4976758;28;45291;-60
2023/03/19 08:48:52;;;;;;;0.65;0.52;;;16.30;51.10;;;;;;4980715;28;45200;-57
2023/03/19 08:51:17;;;;;;;0.85;0.70;;;16.30;51.10;;;;;;4980701;28;45106;-59
2023/03/19 08:53:43;;;;;;;0.98;0.82;;;16.30;51.00;;;;;;4970712;28;44696;-59
2023/03/19 08:56:09;;;;;;;0.65;0.65;;;16.40;51.10;;;;;;4957854;28;46562;-60
2023/03/19 08:58:34;;;;;;;0.50;0.50;;;16.40;51.00;;;;;;4988289;28;45214;-58
2023/03/19 09:01:10;;;;;;;0.73;0.63;;;16.40;51.00;;;;;;4974449;28;45443;-63
2023/03/19 09:03:36;;;;;;;0.75;0.60;;;16.40;51.00;;;;;;4945493;28;45254;-58
2023/03/19 09:06:04;;;;;;;0.75;0.60;;;16.30;51.00;;;;;;4953290;28;45284;-61
2023/03/19 09:08:29;;;;;;;0.88;0.70;;;16.30;51.00;;;;;;4960817;28;45508;-60
2023/03/19 09:10:55;;;;;;;0.60;0.60;;;16.40;51.10;;;;;;4941486;28;45480;-61
2023/03/19 09:13:21;;;;;;;0.77;0.70;;;16.30;51.00;;;;;;4967151;28;45233;-59
2023/03/19 09:15:46;;;;;;;0.73;0.73;;;16.30;51.00;;;;;;4956447;28;46281;-61
2023/03/19 09:18:12;;;;;;;0.57;0.57;;;16.30;51.00;;;;;;4968225;28;44764;-59
2023/03/19 09:20:37;;;;;;;1.42;0.70;;;16.40;51.00;;;;;;4977955;28;45863;-60
2023/03/19 09:23:03;;;;;;;1.10;0.65;;;16.40;51.00;;;;;;4963372;28;45198;-60
2023/03/19 09:25:29;;;;;;;1.02;0.80;;;16.30;51.00;;;;;;4952994;28;47123;-61
2023/03/19 09:27:55;;;;;;;0.77;0.70;;;16.30;51.00;;;;;;4979900;28;45232;-60
2023/03/19 09:30:20;;;;;;;0.40;0.40;;;16.30;51.00;;;;;;4956898;28;45476;-61
2023/03/19 09:32:46;;;;;;;1.05;0.90;;;16.30;51.10;;;;;;4962305;28;44988;-59
2023/03/19 09:35:11;;;;;;;0.90;0.80;;;16.30;51.10;;;;;;4961556;28;45711;-61
2023/03/19 09:37:37;;;;;;;1.35;0.85;;;16.30;51.10;;;;;;4968618;28;45354;-58
2023/03/19 09:40:04;;;;;;;1.10;0.90;;;16.30;51.10;;;;;;4961461;28;45688;-64
2023/03/19 09:42:45;;;;;;;1.10;0.73;;;16.30;51.10;;;;;;4963884;28;45239;-59
2023/03/19 09:45:15;;;;;;;0.68;0.68;;;16.40;51.00;;;;;;4949088;28;46167;-59
2023/03/19 09:47:42;;;;;;;0.73;0.73;;;16.40;51.00;;;;;;4946669;28;45656;-59
2023/03/19 09:50:22;;;;;;;0.60;0.60;;;16.40;51.00;;;;;;4980196;28;45439;-61
2023/03/19 09:53:07;;;;;;;0.82;0.70;;;16.40;51.60;;;;;;4967353;28;45493;-60
2023/03/19 09:55:40;;;;;;;0.88;0.80;;;16.40;50.90;;;;;;4963895;28;45348;-58
2023/03/19 09:58:16;;;;;;;0.80;0.65;;;16.40;50.90;;;;;;4981701;28;45342;-59
2023/03/19 10:00:42;;;;;;;0.98;0.88;;;16.40;50.90;;;;;;4952549;28;46461;-60
2023/03/19 10:03:30;;;;;;;0.70;0.57;;;16.40;51.50;;;;;;4957584;28;45494;-59
2023/03/19 10:05:59;;;;;;;0.80;0.77;;;16.40;50.90;;;;;;4958048;28;46511;-59
2023/03/19 10:08:52;;;;;;;0.80;0.68;;;16.40;50.90;;;;;;4965803;28;45748;-60
2023/03/19 10:11:37;;;;;;;0.95;0.70;;;16.40;51.00;;;;;;4964393;28;45304;-61
2023/03/19 10:14:28;;;;;;;0.68;0.60;;;16.40;51.10;;;;;;4966176;28;44760;-60
2023/03/19 10:16:54;;;;;;;0.60;0.60;;;16.40;51.00;;;;;;4956088;28;45400;-59
2023/03/19 10:19:27;;;;;;;0.75;0.57;;;16.40;51.00;;;;;;4960722;28;45355;-60
2023/03/19 10:22:02;;;;;;;;;;;16.40;51.00;;;;;;4946009;28;46229;-57
2023/03/19 10:24:38;;;;;;;0.70;0.70;;;16.30;51.00;;;;;;4978951;28;45975;-58
2023/03/19 10:27:12;;;;;;;0.70;0.70;;;16.40;51.00;;;;;;4946720;28;45301;-58
2023/03/19 10:29:39;;;;;;;0.93;0.60;;;16.40;50.90;;;;;;4962954;28;45438;-60
2023/03/19 10:32:32;;;;;;;0.98;0.70;;;16.40;50.90;;;;;;4934141;28;45246;-60
2023/03/19 10:34:58;;;;;;;0.90;0.70;;;16.40;50.90;;;;;;4977551;28;44898;-59
2023/03/19 10:37:27;;;;;;;1.02;0.93;;;16.40;50.90;;;;;;4948313;28;45344;-60
2023/03/19 10:39:57;;;;;;;0.70;0.65;;;16.40;50.90;;;;;;4955777;28;45445;-61
2023/03/19 10:42:38;;;;;;;0.52;0.52;;;16.50;50.90;;;;;;4964012;28;45093;-60
2023/03/19 10:45:22;;;;;;;0.50;0.50;;;16.50;50.90;;;;;;4964590;28;45189;-62
2023/03/19 10:47:48;;;;;;;0.50;0.50;;;16.50;50.80;;;;;;4981199;28;45582;-59
2023/03/19 10:50:18;;;;;;;0.70;0.70;;;16.40;50.80;;;;;;4962551;28;45812;-57
2023/03/19 10:52:44;;;;;;;0.90;0.70;;;16.50;50.90;;;;;;4966395;28;45055;-57
2023/03/19 10:55:15;;;;;;;0.85;0.60;;;16.40;50.80;;;;;;4962435;28;45548;-59
2023/03/19 10:57:48;;;;;;;0.60;0.55;;;16.40;51.50;;;;;;4948185;28;45499;-58
2023/03/19 11:00:16;;;;;;;0.93;0.70;;;16.40;50.80;;;;;;4949090;28;45476;-59
2023/03/19 11:02:47;;;;;;;0.77;0.63;;;16.40;50.90;;;;;;4962481;28;45049;-60
2023/03/19 11:05:12;;;;;;;0.80;0.60;;;16.40;50.90;;;;;;4967122;28;46107;-60
2023/03/19 11:07:38;;;;;;;0.47;0.47;;;16.40;50.90;;;;;;4969402;28;47325;-59
2023/03/19 11:10:04;;;;;;;1.25;0.80;;;16.40;50.80;;;;;;4953013;28;45614;-59
2023/03/19 11:12:32;;;;;;;0.60;0.60;;;16.50;50.90;;;;;;4950268;28;45146;-60
2023/03/19 11:14:58;;;;;;;0.75;0.55;;;16.50;50.90;;;;;;4963950;28;45597;-60
2023/03/19 11:17:46;;;;;;;1.10;0.95;;;16.50;50.90;;;;;;4958603;28;45514;-58
2023/03/19 11:20:33;;;;;;;0.75;0.75;;;16.50;50.80;;;;;;4980274;28;44674;-59
2023/03/19 11:23:02;;;;;;;0.60;0.57;;;16.50;50.80;;;;;;4980534;28;45130;-57
2023/03/19 11:25:28;;;;;;;0.50;0.50;;;16.50;50.80;;;;;;4944714;28;45557;-57
2023/03/19 11:28:07;;;;;;;0.70;0.70;;;16.50;50.70;;;;;;4986965;28;46278;-59
2023/03/19 11:31:12;;;;;;;0.70;0.70;;;16.50;50.60;;;;;;4960431;28;45155;-58
2023/03/19 11:33:40;;;;;;;0.50;0.50;;;16.60;50.60;;;;;;4958451;28;45392;-58
2023/03/19 11:36:17;;;;;;;0.93;0.75;;;16.60;50.60;;;;;;4946360;28;45534;-59
2023/03/19 11:38:55;;;;;;;0.63;0.63;;;16.60;50.60;;;;;;4936245;28;47074;-58
2023/03/19 11:41:30;;;;;;;1.48;0.93;;;16.60;50.60;;;;;;4984612;23;45309;-58
2023/03/19 11:43:58;;;;;;;1.20;0.75;;;16.60;50.50;;;;;;4969898;28;45481;-60
2023/03/19 11:46:53;;;;;;;0.52;0.52;;;16.60;50.50;;;;;;4953650;28;44772;-58
2023/03/19 11:49:52;;;;;;;0.80;0.65;;;16.60;50.50;;;;;;4974604;28;46245;-57
2023/03/19 11:52:32;;;;;;;0.65;0.60;;;16.60;50.50;;;;;;4958395;28;45423;-59
2023/03/19 11:57:49;;;;;;;0.52;0.52;;;16.60;50.50;;;;;;4976451;28;45869;-59
2023/03/19 12:00:38;;;;;;;0.85;0.75;;;16.60;50.50;;;;;;4972959;28;45766;-58
2023/03/19 12:03:17;;;;;;;1.33;0.70;;;16.60;50.40;;;;;;4947784;28;45457;-57
2023/03/19 12:05:54;;;;;;;0.70;0.70;;;16.70;50.50;;;;;;4948992;28;45658;-57
2023/03/19 12:08:28;;;;;;;1.10;0.70;;;16.70;50.40;;;;;;4950717;28;45158;-57
2023/03/19 12:11:16;;;;;;;0.57;0.50;;;16.70;50.40;;;;;;4948254;28;45559;-58
2023/03/19 12:13:58;;;;;;;0.60;0.60;;;16.70;50.40;;;;;;4940151;28;45282;-59
2023/03/19 12:16:26;;;;;;;1.25;0.70;;;16.70;50.40;;;;;;4907622;28;45548;-58
2023/03/19 12:19:15;;;;;;;0.90;0.77;;;16.70;50.40;;;;;;4929710;28;45073;-59
2023/03/19 12:21:56;;;;;;;0.65;0.65;;;16.70;50.30;;;;;;4926251;28;47470;-59
2023/03/19 12:24:54;;;;;;;1.10;0.73;;;16.70;50.30;;;;;;4965719;28;45318;-57
2023/03/19 12:27:42;;;;;;;0.65;0.60;;;16.70;50.40;;;;;;4947485;28;45755;-59
2023/03/19 12:30:14;;;;;;;0.60;0.60;;;16.70;50.30;;;;;;4908657;28;45187;-59
2023/03/19 12:33:06;;;;;;;0.65;0.50;;;16.70;50.40;;;;;;4947437;28;47184;-58
2023/03/19 12:35:36;;;;;;;0.70;0.70;;;16.70;50.30;;;;;;4958925;28;44721;-59
2023/03/19 12:38:16;;;;;;;0.82;0.60;;;16.70;50.40;;;;;;4948211;28;45317;-60
2023/03/19 12:41:06;;;;;;;0.75;0.75;;;16.70;50.30;;;;;;4941035;28;45346;-57
2023/03/19 12:43:53;;;;;;;0.52;0.52;;;16.70;50.40;;;;;;4919584;28;46210;-58
2023/03/19 12:46:31;;;;;;;0.75;0.73;;;16.70;50.40;;;;;;4952844;22;46170;-57
2023/03/19 12:49:09;;;;;;;0.60;0.57;;;16.70;50.30;;;;;;4970001;28;45389;-58
2023/03/19 12:51:37;;;;;;;0.68;0.60;;;16.70;50.30;;;;;;4959714;28;45558;-57
2023/03/19 12:54:13;;;;;;;0.55;0.55;;;16.70;50.40;;;;;;4954117;28;45593;-58
2023/03/19 12:57:05;;;;;;;0.68;0.60;;;16.80;50.40;;;;;;4962466;28;45544;-57
2023/03/19 12:59:37;;;;;;;0.57;0.57;;;16.80;50.40;;;;;;4966329;28;45363;-57
2023/03/19 13:02:20;;;;;;;0.50;0.50;;;16.80;50.40;;;;;;4956398;28;45190;-58
2023/03/19 13:04:54;;;;;;;0.45;0.45;;;16.80;50.30;;;;;;4980814;28;45392;-58
2023/03/19 13:07:27;;;;;;;0.93;0.80;;;16.80;50.30;;;;;;4963121;28;45432;-59
2023/03/19 13:09:59;;;;;;;1.17;0.75;;;16.80;50.30;;;;;;4952005;28;45342;-59
2023/03/19 13:12:27;;;;;;;0.90;0.80;;;16.80;50.30;;;;;;4922347;28;45486;-59
2023/03/19 13:14:58;;;;;;;0.90;0.80;;;16.90;50.30;;;;;;4967336;28;46046;-59
2023/03/19 13:17:40;;;;;;;1.10;0.68;;;16.80;50.30;;;;;;4987634;22;45157;-59
2023/03/19 13:20:38;;;;;;;0.60;0.60;;;16.80;50.40;;;;;;4942451;28;45193;-60
2023/03/19 13:23:03;;;;;;;0.75;0.50;;;16.80;50.50;;;;;;4980043;28;45588;-59
2023/03/19 13:25:36;;;;;;;0.63;0.60;;;16.80;50.50;;;;;;4944587;28;46232;-59
2023/03/19 13:28:02;;;;;;;0.60;0.57;;;16.80;50.50;;;;;;4955182;28;44690;-58
2023/03/19 13:30:27;;;;;;;0.80;0.60;;;16.80;50.50;;;;;;4962192;22;45370;-61
2023/03/19 13:33:03;;;;;;;0.45;0.45;;;16.80;50.50;;;;;;4978805;28;45479;-58
2023/03/19 13:35:50;;;;;;;1.02;0.93;;;16.80;50.50;;;;;;4980342;28;45977;-57
2023/03/19 13:38:24;;;;;;;0.88;0.60;;;16.90;50.40;;;;;;4984710;28;45045;-58
2023/03/19 13:40:50;;;;;;;;;;;16.90;50.40;;;;;;4951136;28;45710;-59
2023/03/19 13:43:28;;;;;;;0.55;0.55;;;16.90;50.30;;;;;;4970882;28;45471;-58
2023/03/19 13:46:24;;;;;;;0.60;0.60;;;16.90;50.30;;;;;;4961336;28;45464;-57
2023/03/19 13:48:51;;;;;;;0.70;0.60;;;16.90;50.30;;;;;;4975009;28;45505;-59
2023/03/19 13:51:20;;;;;;;0.70;0.70;;;16.90;50.20;;;;;;4976430;28;45651;-57
2023/03/19 13:53:52;;;;;;;0.65;0.60;;;16.90;50.20;;;;;;4980338;28;44875;-59
2023/03/19 13:56:17;;;;;;;1.33;0.80;;;16.90;50.20;;;;;;4992871;22;46275;-59
2023/03/19 13:58:53;;;;;;;0.60;0.60;;;17.00;50.20;;;;;;4977842;28;45164;-57
2023/03/19 14:01:25;;;;;;;0.73;0.60;;;17.00;50.30;;;;;;4940930;28;45200;-58
2023/03/19 14:03:57;;;;;;;1.08;0.80;;;16.90;50.20;;;;;;4963182;28;45022;-58
2023/03/19 14:06:38;;;;;;;0.68;0.68;;;16.90;50.20;;;;;;4922069;28;46206;-57
2023/03/19 14:09:04;;;;;;;0.60;0.60;;;17.00;50.30;;;;;;4957241;28;45341;-58
2023/03/19 14:11:32;;;;;;;0.70;0.70;;;17.00;50.30;;;;;;4940290;28;45265;-57
2023/03/19 14:14:05;;;;;;;0.70;0.60;;;17.00;50.30;;;;;;4944440;28;45310;-59
2023/03/19 14:16:36;;;;;;;1.17;0.75;;;17.00;50.20;;;;;;4936311;28;47024;-55
2023/03/19 14:19:02;;;;;;;0.50;0.43;;;17.00;50.30;;;;;;4957426;28;44958;-58
2023/03/19 14:21:58;;;;;;;0.73;0.73;;;17.00;50.20;;;;;;4942098;28;45111;-55
2023/03/19 14:24:35;;;;;;;0.65;0.60;;;17.00;50.20;;;;;;4919341;28;46065;-57
2023/03/19 14:27:02;;;;;;;0.50;0.50;;;17.00;50.20;;;;;;4937942;28;45669;-57
2023/03/19 14:29:29;;;;;;;0.65;0.50;;;17.00;50.20;;;;;;4934917;28;45270;-57
2023/03/19 14:31:56;;;;;;;0.75;0.60;;;17.00;50.20;;;;;;4919347;28;45554;-56
2023/03/19 14:34:26;;;;;;;1.13;0.70;;;17.00;50.20;;;;;;4917577;28;46163;-59
2023/03/19 14:37:15;;;;;;;0.70;0.50;;;17.00;50.20;;;;;;4950966;28;45560;-60
2023/03/19 14:39:42;;;;;;;0.90;0.60;;;17.00;50.30;;;;;;4947321;28;45572;-58
2023/03/19 14:42:18;;;;;;;0.55;0.52;;;17.00;50.20;;;;;;4942294;28;45685;-60
2023/03/19 14:45:05;;;;;;;1.00;0.70;;;17.00;50.20;;;;;;4931122;28;46396;-58
2023/03/19 14:47:56;;;;;;;0.82;0.70;;;17.00;50.20;;;;;;4936746;28;45523;-59
2023/03/19 14:51:13;;;;;;;0.52;0.52;;;17.00;50.30;;;;;;4927617;28;44820;-58
2023/03/19 14:53:41;;;;;;;0.50;0.50;;;17.00;50.20;;;;;;4945605;28;44808;-58
2023/03/19 14:56:24;;;;;;;0.88;0.80;;;17.00;50.20;;;;;;4935751;28;45493;-58
2023/03/19 14:58:53;;;;;;;0.63;0.50;;;17.10;50.20;;;;;;4939049;28;45804;-58
2023/03/19 15:01:19;;;;;;;0.50;0.50;;;17.00;50.30;;;;;;4927029;28;45598;-58
2023/03/19 15:03:50;;;;;;;0.63;0.60;;;17.10;50.30;;;;;;4927309;28;45298;-57
2023/03/19 15:06:15;;;;;;;0.70;0.57;;;17.10;50.20;;;;;;4938467;28;45381;-55
2023/03/19 15:08:41;;;;;;;0.52;0.50;;;17.10;50.20;;;;;;4938747;28;46145;-55
2023/03/19 15:11:13;;;;;;;0.50;0.50;;;17.10;50.20;;;;;;4943466;28;45920;-63
2023/03/19 15:13:57;;;;;;;0.50;0.50;;;17.10;50.20;;;;;;4961535;28;45113;-56
2023/03/19 15:16:45;;;;;;;0.82;0.70;;;17.10;50.10;;;;;;4918281;28;45784;-56
2023/03/19 15:19:10;;;;;;;1.13;0.70;;;17.10;50.30;;;;;;4939594;28;46045;-60
2023/03/19 15:21:37;;;;;;;0.80;0.60;;;17.10;50.20;;;;;;4953926;28;46091;-57
2023/03/19 15:24:03;;;;;;;0.75;0.60;;;17.10;50.20;;;;;;4935828;28;45771;-61
2023/03/19 15:26:35;;;;;;;0.70;0.65;;;17.10;50.20;;;;;;4929550;28;45292;-59
2023/03/19 15:29:01;;;;;;;0.67;0.60;;;17.10;50.70;;;;;;4946229;28;45562;-58
2023/03/19 15:32:00;;;;;;;0.70;0.70;;;17.10;50.20;;;;;;4941677;28;48069;-59
2023/03/19 15:34:27;;;;;;;1.23;0.77;;;17.10;50.20;;;;;;4947486;28;45027;-59
2023/03/19 15:36:56;;;;;;;0.93;0.60;;;17.10;50.20;;;;;;4938467;28;45755;-57
2023/03/19 15:39:23;;;;;;;0.60;0.60;;;17.10;50.20;;;;;;4953116;28;47638;-58
2023/03/19 15:41:49;;;;;;;0.88;0.70;;;17.10;50.20;;;;;;4925488;28;45242;-59
2023/03/19 15:44:36;;;;;;;0.50;0.50;;;17.10;50.20;;;;;;4951906;28;45093;-59
2023/03/19 15:47:02;;;;;;;0.85;0.70;;;17.20;50.90;;;;;;4926545;28;45330;-58
2023/03/19 15:49:30;;;;;;;0.60;0.60;;;17.10;50.20;;;;;;4916481;28;47133;-59
2023/03/19 15:51:58;;;;;;;0.52;0.50;;;17.10;50.20;;;;;;4928889;28;45666;-61
2023/03/19 15:54:23;;;;;;;0.85;0.80;;;17.10;50.20;;;;;;4930314;28;45732;-59
2023/03/19 15:56:49;;;;;;;1.15;0.70;;;17.10;50.20;;;;;;4944639;28;45572;-58
2023/03/19 15:59:16;;;;;;;1.05;0.80;;;17.10;50.20;;;;;;4943708;28;45634;-58
2023/03/19 16:01:41;;;;;;;0.68;0.63;;;17.10;50.20;;;;;;4933338;28;45302;-57
2023/03/19 16:04:09;;;;;;;0.50;0.50;;;17.10;50.20;;;;;;4955048;28;45464;-59
2023/03/19 16:06:36;;;;;;;0.95;0.70;;;17.20;50.20;;;;;;4928439;28;45623;-57
2023/03/19 16:09:24;;;;;;;1.08;0.77;;;17.10;50.20;;;;;;4944029;28;45331;-58
2023/03/19 16:11:50;;;;;;;0.60;0.60;;;17.20;50.20;;;;;;4954729;28;45523;-59
2023/03/19 16:14:41;;;;;;;0.70;0.70;;;17.20;50.20;;;;;;4931364;28;45094;-59
2023/03/19 16:17:14;;;;;;;0.50;0.50;;;17.20;50.20;;;;;;4945890;28;45575;-60
2023/03/19 16:19:49;;;;;;;0.50;0.50;;;17.20;50.20;;;;;;4940003;28;45269;-58
2023/03/19 16:22:18;;;;;;;1.00;0.65;;;17.20;50.20;;;;;;4955405;28;45190;-60
2023/03/19 16:24:44;;;;;;;0.50;0.50;;;17.20;50.20;;;;;;4951747;28;44943;-58
2023/03/19 16:27:15;;;;;;;0.80;0.70;;;17.20;50.20;;;;;;4928641;28;45268;-58
2023/03/19 16:29:48;;;;;;;0.63;0.50;;;17.20;50.20;;;;;;4938305;28;45384;-59
2023/03/19 16:32:18;;;;;;;0.70;0.70;;;17.20;50.30;;;;;;4922045;28;45529;-59
2023/03/19 16:34:45;;;;;;;1.00;0.68;;;17.20;50.20;;;;;;4957864;28;45305;-60
2023/03/19 16:37:26;;;;;;;0.80;0.63;;;17.20;50.20;;;;;;4945519;28;44762;-59
2023/03/19 16:39:59;;;;;;;0.45;0.45;;;17.20;50.20;;;;;;4961738;28;46671;-59
2023/03/19 16:42:26;;;;;;;;;;;17.20;50.20;;;;;;4935516;28;45765;-59
2023/03/19 16:44:51;;;;;;;0.70;0.60;;;17.20;50.30;;;;;;4946228;28;44963;-60
2023/03/19 16:47:17;;;;;;;0.60;0.50;;;17.20;50.30;;;;;;4937226;28;45438;-58
2023/03/19 16:49:42;;;;;;;0.73;0.60;;;17.20;50.20;;;;;;4931911;28;46066;-55
2023/03/19 16:52:17;;;;;;;0.50;0.50;;;17.20;50.30;;;;;;4942829;28;45230;-59
2023/03/19 16:54:42;;;;;;;0.90;0.80;;;17.20;50.30;;;;;;4932088;28;46802;-60
2023/03/19 16:57:10;;;;;;;0.47;0.47;;;17.20;50.30;;;;;;4939364;28;44789;-59
2023/03/19 16:59:38;;;;;;;0.88;0.68;;;17.20;50.30;;;;;;4959281;28;45646;-60
2023/03/19 17:02:12;;;;;;;0.80;0.57;;;17.10;50.30;;;;;;4947554;28;45684;-62
2023/03/19 17:04:37;;;;;;;;;;;17.20;50.40;;;;;;4945321;28;44769;-59
2023/03/19 17:07:03;;;;;;;0.50;0.50;;;17.10;50.40;;;;;;4953580;28;45322;-60
2023/03/19 17:09:28;;;;;;;0.57;0.57;;;17.10;50.40;;;;;;4961594;28;45487;-60